Time;durP1;ratioP1;P1;durP2;ratioP2;P2;SDS_P1;SDS_P2;PMS_P1;PMS_P2;Temp;Humidity;BMP_temperature;BMP_pressure;BME280_temperature;BME280_humidity;BME280_pressure;Samples;Min_cycle;Max_cycle;Signal;HPM_P1;HPM_P2
2022/08/06 00:00:39;;;;;;;;;;;20.50;57.20;;;;;;5141386;27;19923;-49
2022/08/06 00:03:05;;;;;;;;;;;21.30;58.20;;;;;;5146674;27;19979;-46
2022/08/06 00:05:30;;;;;;;;;;;21.60;56.40;;;;;;5139931;27;19930;-45
2022/08/06 00:07:56;;;;;;;;;;;20.80;55.00;;;;;;5123293;27;19979;-52
2022/08/06 00:10:22;;;;;;;;;;;20.50;53.90;;;;;;5145763;27;20351;-46
2022/08/06 00:12:48;;;;;;;;;;;20.10;53.20;;;;;;5141274;27;19927;-46
2022/08/06 00:15:14;;;;;;;;;;;19.90;52.30;;;;;;5146905;27;19927;-50
2022/08/06 00:17:43;;;;;;;;;;;19.90;51.70;;;;;;5141287;27;20399;-47
2022/08/06 00:20:09;;;;;;;;;;;20.00;55.40;;;;;;5122828;27;19930;-46
2022/08/06 00:22:35;;;;;;;;;;;20.80;58.00;;;;;;5130767;27;19927;-46
2022/08/06 00:25:01;;;;;;;;;;;21.70;57.20;;;;;;5143368;27;20108;-51
2022/08/06 00:27:27;;;;;;;;;;;20.90;55.40;;;;;;5144412;27;20239;-47
2022/08/06 00:29:53;;;;;;;;;;;20.70;54.10;;;;;;5150283;27;19923;-49
2022/08/06 00:32:18;;;;;;;;;;;20.30;52.90;;;;;;5144977;27;19934;-47
2022/08/06 00:34:44;;;;;;;;;;;20.10;52.50;;;;;;5150424;27;20011;-47
2022/08/06 00:37:10;;;;;;;;;;;19.90;51.80;;;;;;5126216;27;19991;-45
2022/08/06 00:39:36;;;;;;;;;;;19.80;51.60;;;;;;5144551;27;19931;-46
2022/08/06 00:42:02;;;;;;;;;;;20.00;53.40;;;;;;5148785;27;19995;-47
2022/08/06 00:44:28;;;;;;;;;;;20.80;57.20;;;;;;5125250;27;19930;-50
2022/08/06 00:46:54;;;;;;;;;;;21.50;56.70;;;;;;5144408;27;19938;-48
2022/08/06 00:49:19;;;;;;;;;;;21.30;55.20;;;;;;5150040;27;19937;-48
2022/08/06 00:51:45;;;;;;;;;;;20.60;54.00;;;;;;5144616;27;19927;-48
2022/08/06 00:54:11;;;;;;;;;;;20.30;53.20;;;;;;5149651;27;19981;-45
2022/08/06 00:56:37;;;;;;;;;;;20.30;52.00;;;;;;5144327;27;19923;-46
2022/08/06 00:59:03;;;;;;;;;;;20.20;51.60;;;;;;5144242;27;19976;-49
2022/08/06 01:01:29;;;;;;;;;;;20.00;51.20;;;;;;5148329;27;19927;-48
2022/08/06 01:03:54;;;;;;;;;;;19.80;51.70;;;;;;5143608;27;20390;-47
2022/08/06 01:06:20;;;;;;;;;;;20.50;56.20;;;;;;5144246;27;19923;-51
2022/08/06 01:08:46;;;;;;;;;;;21.30;56.70;;;;;;5150091;27;19925;-46
2022/08/06 01:11:12;;;;;;;;;;;21.60;54.90;;;;;;5144320;27;20046;-45
2022/08/06 01:13:37;;;;;;;;;;;20.80;54.10;;;;;;5148429;27;19991;-55
2022/08/06 01:16:36;;;;;;;;;;;20.60;52.90;;;;;;5145496;27;19931;-46
2022/08/06 01:19:01;;;;;;;;;;;20.10;52.60;;;;;;5107596;27;19923;-49
2022/08/06 01:21:30;;;;;;;;;;;20.00;51.70;;;;;;5145110;27;19929;-52
2022/08/06 01:24:08;;;;;;;;;;;20.10;53.50;;;;;;5148260;27;19978;-47
2022/08/06 01:26:39;;;;;;;;;;;20.80;56.70;;;;;;5125620;27;19933;-47
2022/08/06 01:29:11;;;;;;;;;;;21.70;55.50;;;;;;5130597;27;19927;-53
2022/08/06 01:31:41;;;;;;;;;;;21.10;54.00;;;;;;5146837;27;20002;-46
2022/08/06 01:34:10;;;;;;;;;;;20.60;53.20;;;;;;5141183;27;19923;-48
2022/08/06 01:36:37;;;;;;;;;;;20.30;52.50;;;;;;5121730;27;19923;-46
2022/08/06 01:39:03;;;;;;;;;;;20.20;51.60;;;;;;5142355;27;19937;-47
2022/08/06 01:41:41;;;;;;;;;;;19.90;51.50;;;;;;5143226;27;19927;-46
2022/08/06 01:44:08;;;;;;;;;;;19.90;51.00;;;;;;5130899;27;20378;-46
2022/08/06 01:46:37;;;;;;;;;;;20.10;54.20;;;;;;5143812;27;19923;-46
2022/08/06 01:49:03;;;;;;;;;;;20.90;56.30;;;;;;5143340;27;19933;-49
2022/08/06 01:51:29;;;;;;;;;;;21.80;55.10;;;;;;5130237;27;20434;-46
2022/08/06 01:53:55;;;;;;;;;;;20.90;53.90;;;;;;5143000;27;19946;-46
2022/08/06 01:56:20;;;;;;;;;;;20.30;53.40;;;;;;5124244;27;19972;-55
2022/08/06 01:58:46;;;;;;;;;;;20.20;52.50;;;;;;5129066;27;19923;-46
2022/08/06 02:01:12;;;;;;;;;;;20.10;51.50;;;;;;5142972;27;19927;-46
2022/08/06 02:03:45;;;;;;;;;;;20.00;51.20;;;;;;5130197;27;19923;-46
2022/08/06 02:06:15;;;;;;;;;;;19.90;50.80;;;;;;5124483;27;20324;-47
2022/08/06 02:08:40;;;;;;;;;;;20.00;53.90;;;;;;5142959;27;20026;-52
2022/08/06 02:11:07;;;;;;;;;;;20.90;55.60;;;;;;5148501;27;19923;-45
2022/08/06 02:13:32;;;;;;;;;;;21.60;54.80;;;;;;5141959;27;20381;-47
2022/08/06 02:15:59;;;;;;;;;;;21.30;53.50;;;;;;5123525;27;19923;-46
2022/08/06 02:18:24;;;;;;;;;;;20.60;52.90;;;;;;5129634;27;20413;-49
2022/08/06 02:20:51;;;;;;;;;;;20.30;51.70;;;;;;5142511;27;19927;-46
2022/08/06 02:23:18;;;;;;;;;;;19.90;51.80;;;;;;5147548;27;20305;-53
2022/08/06 02:25:44;;;;;;;;;;;19.80;51.20;;;;;;5125472;27;19927;-47
2022/08/06 02:28:11;;;;;;;;;;;19.90;52.30;;;;;;5142691;27;20882;-48
2022/08/06 02:30:38;;;;;;;;;;;20.70;55.40;;;;;;5127320;27;21133;-46
2022/08/06 02:33:05;;;;;;;;;;;21.60;54.50;;;;;;5140943;27;20387;-46
2022/08/06 02:35:32;;;;;;;;;;;21.20;53.30;;;;;;5141769;27;19954;-46
2022/08/06 02:38:00;;;;;;;;;;;20.60;52.70;;;;;;5129147;27;19931;-47
2022/08/06 02:40:33;;;;;;;;;;;20.20;52.00;;;;;;5120258;27;19923;-48
2022/08/06 02:43:10;;;;;;;;;;;20.00;51.70;;;;;;5123926;27;20180;-49
2022/08/06 02:45:38;;;;;;;;;;;20.00;51.00;;;;;;5128855;27;19927;-50
2022/08/06 02:48:06;;;;;;;;;;;19.80;50.60;;;;;;5123890;27;19937;-48
2022/08/06 02:50:35;;;;;;;;;;;19.80;52.40;;;;;;5123949;27;19971;-56
2022/08/06 02:53:02;;;;;;;;;;;20.70;55.20;;;;;;5125151;27;19923;-47
2022/08/06 02:55:30;;;;;;;;;;;21.60;54.10;;;;;;5123715;27;19933;-47
2022/08/06 02:57:58;;;;;;;;;;;21.20;53.10;;;;;;5129112;27;19974;-46
2022/08/06 03:00:23;;;;;;;;;;;20.40;52.90;;;;;;5142149;27;19937;-46
2022/08/06 03:02:52;;;;;;;;;;;20.10;51.90;;;;;;5141805;27;19927;-45
2022/08/06 03:05:18;;;;;;;;;;;19.80;51.50;;;;;;5147316;27;19923;-46
2022/08/06 03:07:44;;;;;;;;;;;19.70;51.20;;;;;;5141641;27;20380;-47
2022/08/06 03:10:10;;;;;;;;;;;20.00;53.80;;;;;;5117373;27;19938;-50
2022/08/06 03:12:35;;;;;;;;;;;20.90;54.80;;;;;;5146711;27;19933;-49
2022/08/06 03:15:02;;;;;;;;;;;21.70;53.90;;;;;;5141834;27;19923;-48
2022/08/06 03:17:28;;;;;;;;;;;21.00;52.50;;;;;;5147398;27;19923;-54
2022/08/06 03:19:54;;;;;;;;;;;20.30;52.00;;;;;;5142490;27;20733;-50
2022/08/06 03:22:19;;;;;;;;;;;20.10;51.80;;;;;;5141758;27;19923;-46
2022/08/06 03:24:45;;;;;;;;;;;20.00;50.80;;;;;;5147259;27;19927;-48
2022/08/06 03:27:11;;;;;;;;;;;20.00;50.60;;;;;;5140761;27;19927;-46
2022/08/06 03:29:37;;;;;;;;;;;19.80;50.40;;;;;;5140814;27;19927;-47
2022/08/06 03:32:03;;;;;;;;;;;20.30;54.60;;;;;;5107938;27;19931;-47
2022/08/06 03:34:29;;;;;;;;;;;21.20;54.70;;;;;;5141790;27;19930;-44
2022/08/06 03:36:55;;;;;;;;;;;21.70;53.10;;;;;;5126330;27;19930;-57
2022/08/06 03:39:21;;;;;;;;;;;20.80;52.70;;;;;;5116630;27;19924;-47
2022/08/06 03:41:47;;;;;;;;;;;20.30;52.00;;;;;;5141442;27;19930;-46
2022/08/06 03:44:13;;;;;;;;;;;20.10;51.50;;;;;;5128356;27;20552;-46
2022/08/06 03:46:55;;;;;;;;;;;19.80;51.20;;;;;;5139762;27;19945;-50
2022/08/06 03:49:23;;;;;;;;;;;20.00;54.30;;;;;;5141000;27;20300;-48
2022/08/06 03:51:49;;;;;;;;;;;21.10;54.90;;;;;;5146828;27;19927;-44
2022/08/06 03:54:15;;;;;;;;;;;21.50;53.30;;;;;;5141566;27;20053;-49
2022/08/06 03:56:41;;;;;;;;;;;20.80;52.60;;;;;;5119969;27;19931;-46
2022/08/06 03:59:07;;;;;;;;;;;20.40;51.90;;;;;;5151039;27;19933;-48
2022/08/06 04:01:34;;;;;;;;;;;20.10;51.30;;;;;;5145470;27;19924;-45
2022/08/06 04:04:00;;;;;;;;;;;20.00;50.70;;;;;;5124302;27;20426;-54
2022/08/06 04:06:26;;;;;;;;;;;19.80;50.40;;;;;;5147243;27;19978;-47
2022/08/06 04:08:52;;;;;;;;;;;20.50;54.70;;;;;;5145105;27;19975;-46
2022/08/06 04:11:18;;;;;;;;;;;21.30;54.60;;;;;;5150709;27;19941;-45
2022/08/06 04:13:43;;;;;;;;;;;21.60;52.90;;;;;;5145357;27;19923;-47
2022/08/06 04:16:10;;;;;;;;;;;20.70;52.50;;;;;;5145138;27;19940;-47
2022/08/06 04:18:37;;;;;;;;;;;20.40;51.90;;;;;;5150532;27;19933;-46
2022/08/06 04:21:04;;;;;;;;;;;20.20;51.20;;;;;;5145196;27;20021;-51
2022/08/06 04:23:30;;;;;;;;;;;19.80;51.20;;;;;;5143407;27;20021;-48
2022/08/06 04:25:56;;;;;;;;;;;19.90;50.30;;;;;;5131216;27;19927;-47
2022/08/06 04:28:23;;;;;;;;;;;20.30;54.80;;;;;;5120430;27;19923;-52
2022/08/06 04:30:49;;;;;;;;;;;21.10;54.90;;;;;;5131834;27;19944;-46
2022/08/06 04:33:16;;;;;;;;;;;21.70;52.90;;;;;;5144921;27;20618;-47
2022/08/06 04:35:41;;;;;;;;;;;20.70;52.60;;;;;;5144690;27;20078;-49
2022/08/06 04:38:07;;;;;;;;;;;20.30;52.10;;;;;;5150203;27;19931;-48
2022/08/06 04:40:33;;;;;;;;;;;20.10;51.10;;;;;;5143612;27;19946;-48
2022/08/06 04:42:59;;;;;;;;;;;19.90;50.80;;;;;;5143663;27;20040;-48
2022/08/06 04:45:25;;;;;;;;;;;19.80;50.20;;;;;;5149774;27;19923;-45
2022/08/06 04:47:51;;;;;;;;;;;19.80;52.20;;;;;;5144643;27;19939;-47
2022/08/06 04:50:17;;;;;;;;;;;20.60;55.20;;;;;;5150202;27;19927;-45
2022/08/06 04:52:43;;;;;;;;;;;21.40;54.00;;;;;;5144439;27;20343;-46
2022/08/06 04:55:09;;;;;;;;;;;21.30;52.40;;;;;;5144468;27;19930;-49
2022/08/06 04:57:34;;;;;;;;;;;20.50;52.40;;;;;;5149870;27;19923;-47
2022/08/06 05:00:00;;;;;;;;;;;20.20;51.80;;;;;;5143144;27;19923;-46
2022/08/06 05:02:26;;;;;;;;;;;19.90;51.20;;;;;;5143538;27;19983;-45
2022/08/06 05:04:55;;;;;;;;;;;19.80;50.70;;;;;;5149528;27;19922;-47
2022/08/06 05:07:28;;;;;;;;;;;19.60;51.20;;;;;;5126283;27;19929;-47
2022/08/06 05:09:55;;;;;;;;;;;20.50;54.80;;;;;;5126830;27;19923;-55
2022/08/06 05:12:23;;;;;;;;;;;21.30;54.30;;;;;;5149299;27;19923;-47
2022/08/06 05:14:58;;;;;;;;;;;21.70;52.70;;;;;;5125431;27;19927;-47
2022/08/06 05:17:25;;;;;;;;;;;20.70;52.30;;;;;;5148594;27;20277;-47
2022/08/06 05:19:55;;;;;;;;;;;20.30;51.50;;;;;;5142950;27;20398;-47
2022/08/06 05:22:21;;;;;;;;;;;20.30;50.80;;;;;;5143569;27;19923;-47
2022/08/06 05:24:47;;;;;;;;;;;19.90;50.40;;;;;;5149380;27;19962;-50
2022/08/06 05:27:13;;;;;;;;;;;20.00;52.90;;;;;;5144065;27;19923;-45
2022/08/06 05:29:39;;;;;;;;;;;20.80;54.80;;;;;;5143751;27;19949;-45
2022/08/06 05:32:05;;;;;;;;;;;21.70;53.50;;;;;;5149063;27;20017;-47
2022/08/06 05:34:31;;;;;;;;;;;21.00;52.50;;;;;;5143590;27;20281;-48
2022/08/06 05:36:57;;;;;;;;;;;20.40;52.00;;;;;;5132528;27;19976;-55
2022/08/06 05:39:22;;;;;;;;;;;20.30;51.50;;;;;;5146543;27;19927;-46
2022/08/06 05:41:48;;;;;;;;;;;19.90;51.00;;;;;;5143452;27;19980;-47
2022/08/06 05:44:14;;;;;;;;;;;19.80;50.70;;;;;;5126844;27;20370;-47
2022/08/06 05:46:53;;;;;;;;;;;20.00;54.50;;;;;;5143638;27;19931;-48
2022/08/06 05:49:21;;;;;;;;;;;20.90;55.10;;;;;;5143588;27;19923;-45
2022/08/06 05:51:51;;;;;;;;;;;21.80;53.00;;;;;;5130411;27;20022;-49
2022/08/06 05:54:27;;;;;;;;;;;21.00;52.40;;;;;;5123558;27;20177;-49
2022/08/06 05:56:55;;;;;;;;;;;20.20;52.40;;;;;;5142151;27;19938;-47
2022/08/06 05:59:23;;;;;;;;;;;20.10;51.40;;;;;;5148437;27;20561;-47
2022/08/06 06:01:49;;;;;;;;;;;19.80;51.00;;;;;;5142685;27;19923;-47
2022/08/06 06:04:14;;;;;;;;;;;19.80;51.50;;;;;;5118931;27;20026;-48
2022/08/06 06:06:40;;;;;;;;;;;20.60;55.00;;;;;;5148545;27;19927;-46
2022/08/06 06:09:06;;;;;;;;;;;21.30;54.40;;;;;;5142990;27;19935;-46
2022/08/06 06:11:32;;;;;;;;;;;21.40;52.70;;;;;;5148378;27;19923;-45
2022/08/06 06:13:57;;;;;;;;;;;20.50;52.80;;;;;;5141412;27;20412;-45
2022/08/06 06:16:28;;;;;;;;;;;20.10;51.90;;;;;;5142439;27;19941;-48
2022/08/06 06:19:14;;;;;;;;;;;20.00;50.90;;;;;;5147802;27;19927;-46
2022/08/06 06:21:40;;;;;;;;;;;19.80;51.00;;;;;;5142861;27;20026;-49
2022/08/06 06:24:21;;;;;;;;;;;20.10;53.80;;;;;;5142598;27;20304;-48
2022/08/06 06:27:01;;;;;;;;;;;20.90;55.10;;;;;;5148074;27;20030;-48
2022/08/06 06:29:33;;;;;;;;;;;21.80;53.40;;;;;;5121617;27;19923;-46
2022/08/06 06:32:01;;;;;;;;;;;20.70;53.00;;;;;;5140893;27;19923;-48
2022/08/06 06:34:46;;;;;;;;;;;20.40;52.10;;;;;;5147454;27;19930;-46
2022/08/06 06:37:23;;;;;;;;;;;20.00;51.50;;;;;;5142346;27;19935;-46
2022/08/06 06:39:55;;;;;;;;;;;19.90;50.80;;;;;;5116065;27;20389;-47
2022/08/06 06:42:25;;;;;;;;;;;20.00;52.90;;;;;;5129589;27;19927;-47
2022/08/06 06:45:00;;;;;;;;;;;20.80;55.50;;;;;;5124161;27;20282;-51
2022/08/06 06:47:36;;;;;;;;;;;21.70;53.80;;;;;;5142356;27;19926;-46
2022/08/06 06:50:11;;;;;;;;;;;21.10;52.70;;;;;;5146470;27;19927;-48
2022/08/06 06:52:40;;;;;;;;;;;20.60;52.00;;;;;;5123982;27;19923;-47
2022/08/06 06:55:08;;;;;;;;;;;20.20;51.40;;;;;;5123646;27;20259;-47
2022/08/06 06:57:35;;;;;;;;;;;19.80;51.30;;;;;;5147910;27;19929;-47
2022/08/06 07:00:01;;;;;;;;;;;20.00;50.40;;;;;;5123593;27;20426;-45
2022/08/06 07:02:28;;;;;;;;;;;19.70;50.60;;;;;;5141998;27;19932;-47
2022/08/06 07:04:54;;;;;;;;;;;19.90;53.70;;;;;;5147401;27;19930;-49
2022/08/06 07:07:20;;;;;;;;;;;20.80;55.40;;;;;;5122709;27;19927;-47
2022/08/06 07:09:46;;;;;;;;;;;21.70;53.90;;;;;;5121815;27;19923;-57
2022/08/06 07:12:12;;;;;;;;;;;21.10;52.90;;;;;;5143050;27;19976;-46
2022/08/06 07:14:38;;;;;;;;;;;20.70;52.10;;;;;;5141844;27;19927;-47
2022/08/06 07:17:04;;;;;;;;;;;20.40;51.20;;;;;;5113972;27;19993;-46
2022/08/06 07:19:30;;;;;;;;;;;20.00;51.30;;;;;;5116136;27;21022;-46
2022/08/06 07:21:55;;;;;;;;;;;19.90;50.70;;;;;;5141679;27;20362;-46
2022/08/06 07:24:23;;;;;;;;;;;19.90;51.60;;;;;;5147233;27;19927;-48
2022/08/06 07:26:49;;;;;;;;;;;20.60;55.40;;;;;;5140393;27;19933;-48
2022/08/06 07:29:15;;;;;;;;;;;21.50;54.10;;;;;;5141748;27;19928;-55
2022/08/06 07:31:40;;;;;;;;;;;21.10;52.90;;;;;;5148400;27;19976;-47
2022/08/06 07:34:06;;;;;;;;;;;20.40;52.50;;;;;;5146115;27;19923;-47
2022/08/06 07:36:33;;;;;;;;;;;20.10;52.10;;;;;;5133000;27;19931;-45
2022/08/06 07:39:01;;;;;;;;;;;19.90;51.30;;;;;;5145791;27;19927;-45
2022/08/06 07:41:26;;;;;;;;;;;19.80;50.80;;;;;;5145783;27;19930;-46
2022/08/06 07:43:53;;;;;;;;;;;20.30;54.50;;;;;;5132111;27;19924;-47
2022/08/06 07:46:22;;;;;;;;;;;21.10;54.90;;;;;;5144497;27;19923;-46
2022/08/06 07:48:59;;;;;;;;;;;21.70;53.00;;;;;;5100778;27;20498;-46
2022/08/06 07:51:26;;;;;;;;;;;20.80;52.70;;;;;;5124455;27;20020;-47
2022/08/06 07:53:52;;;;;;;;;;;20.30;52.20;;;;;;5145782;27;19923;-49
2022/08/06 07:56:18;;;;;;;;;;;20.10;51.60;;;;;;5146370;27;19946;-54
2022/08/06 07:58:43;;;;;;;;;;;19.90;51.30;;;;;;5130964;27;19976;-46
2022/08/06 08:01:09;;;;;;;;;;;19.90;52.30;;;;;;5145432;27;19930;-46
2022/08/06 08:06:23;;;;;;;;;;;21.60;54.30;;;;;;5129454;27;20436;-48
2022/08/06 08:08:53;;;;;;;;;;;21.10;53.00;;;;;;5121736;27;19927;-47
2022/08/06 08:11:18;;;;;;;;;;;20.30;52.70;;;;;;5129513;27;20414;-46
2022/08/06 08:13:44;;;;;;;;;;;20.00;52.30;;;;;;5145371;27;19952;-46
2022/08/06 08:16:11;;;;;;;;;;;20.00;51.30;;;;;;5145159;27;19972;-46
2022/08/06 08:18:38;;;;;;;;;;;19.90;50.90;;;;;;5150576;27;20014;-45
2022/08/06 08:21:04;;;;;;;;;;;19.70;50.60;;;;;;5125500;27;20111;-47
2022/08/06 08:23:32;;;;;;;;;;;20.10;54.80;;;;;;5143845;27;19923;-50
2022/08/06 08:25:59;;;;;;;;;;;21.10;55.00;;;;;;5150094;27;19929;-47
2022/08/06 08:28:25;;;;;;;;;;;21.80;53.20;;;;;;5144908;27;19945;-46
2022/08/06 08:30:51;;;;;;;;;;;20.80;53.10;;;;;;5150541;27;19927;-47
2022/08/06 08:33:17;;;;;;;;;;;20.30;52.30;;;;;;5144898;27;19926;-47
2022/08/06 08:35:43;;;;;;;;;;;20.20;51.40;;;;;;5144834;27;20021;-46
2022/08/06 08:38:09;;;;;;;;;;;19.90;51.10;;;;;;5150116;27;19979;-46
2022/08/06 08:40:34;;;;;;;;;;;19.80;50.60;;;;;;5143274;27;19923;-46
2022/08/06 08:43:01;;;;;;;;;;;19.60;50.80;;;;;;5143668;27;20336;-47
2022/08/06 08:45:26;;;;;;;;;;;20.40;54.70;;;;;;5150032;27;20075;-49
2022/08/06 08:47:52;;;;;;;;;;;21.30;54.60;;;;;;5145013;27;19923;-46
2022/08/06 08:50:19;;;;;;;;;;;21.60;52.90;;;;;;5150164;27;20457;-47
2022/08/06 08:52:45;;;;;;;;;;;20.60;53.30;;;;;;5144311;27;19923;-46
2022/08/06 08:55:11;;;;;;;;;;;20.40;51.70;;;;;;5144455;27;19923;-46
2022/08/06 08:57:37;;;;;;;;;;;20.20;51.20;;;;;;5149128;27;20305;-48
2022/08/06 09:00:04;;;;;;;;;;;20.00;50.80;;;;;;5143566;27;20021;-47
2022/08/06 09:02:29;;;;;;;;;;;19.80;50.60;;;;;;5144041;27;20156;-46
2022/08/06 09:04:55;;;;;;;;;;;20.10;53.80;;;;;;5149982;27;19938;-48
2022/08/06 09:07:21;;;;;;;;;;;20.90;54.80;;;;;;5144628;27;19927;-44
2022/08/06 09:09:46;;;;;;;;;;;21.80;53.60;;;;;;5127585;27;20375;-56
2022/08/06 09:12:12;;;;;;;;;;;20.90;52.80;;;;;;5146167;27;19923;-46
2022/08/06 09:14:38;;;;;;;;;;;20.20;52.40;;;;;;5143928;27;19923;-46
2022/08/06 09:17:05;;;;;;;;;;;20.00;51.80;;;;;;5129831;27;20389;-47
2022/08/06 09:19:30;;;;;;;;;;;19.90;51.20;;;;;;5143237;27;20025;-48
2022/08/06 09:21:56;;;;;;;;;;;19.70;50.80;;;;;;5143746;27;19923;-46
2022/08/06 09:24:22;;;;;;;;;;;20.00;53.30;;;;;;5149390;27;19923;-46
2022/08/06 09:27:21;;;;;;;;;;;20.90;54.70;;;;;;5144035;27;20399;-50
2022/08/06 09:29:53;;;;;;;;;;;21.80;53.10;;;;;;5108486;27;20279;-47
2022/08/06 09:32:35;;;;;;;;;;;20.80;52.50;;;;;;5149268;27;19964;-46
2022/08/06 09:35:01;;;;;;;;;;;20.20;51.90;;;;;;5123874;27;19923;-47
2022/08/06 09:37:27;;;;;;;;;;;20.20;50.90;;;;;;5142922;27;19927;-50
2022/08/06 09:39:53;;;;;;;;;;;19.90;50.70;;;;;;5149192;27;20005;-45
2022/08/06 09:42:35;;;;;;;;;;;19.70;50.50;;;;;;5143376;27;19927;-47
2022/08/06 09:45:07;;;;;;;;;;;20.30;54.30;;;;;;5143628;27;20402;-46
2022/08/06 09:47:33;;;;;;;;;;;21.30;54.20;;;;;;5148715;27;20314;-46
2022/08/06 09:49:59;;;;;;;;;;;21.50;52.50;;;;;;5143360;27;19927;-49
2022/08/06 09:52:24;;;;;;;;;;;20.70;52.10;;;;;;5145207;27;19949;-52
2022/08/06 09:54:50;;;;;;;;;;;20.30;51.70;;;;;;5144447;27;19923;-48
2022/08/06 09:57:16;;;;;;;;;;;20.20;50.80;;;;;;5142738;27;20026;-46
2022/08/06 09:59:46;;;;;;;;;;;19.80;51.10;;;;;;5148418;27;19923;-47
2022/08/06 10:02:12;;;;;;;;;;;19.80;50.70;;;;;;5143106;27;19933;-46
2022/08/06 10:04:38;;;;;;;;;;;20.10;53.40;;;;;;5143017;27;19979;-48
2022/08/06 10:07:04;;;;;;;;;;;21.00;54.30;;;;;;5148508;27;20282;-47
2022/08/06 10:09:32;;;;;;;;;;;21.80;52.90;;;;;;5142902;27;20061;-47
2022/08/06 10:11:58;;;;;;;;;;;20.90;52.40;;;;;;5141362;27;19935;-51
2022/08/06 10:14:31;;;;;;;;;;;20.40;52.00;;;;;;5147537;27;19929;-46
2022/08/06 10:17:15;;;;;;;;;;;20.20;51.00;;;;;;5142676;27;19927;-49
2022/08/06 10:19:42;;;;;;;;;;;19.90;50.90;;;;;;5120826;27;19928;-49
2022/08/06 10:22:08;;;;;;;;;;;19.80;50.30;;;;;;5148207;27;20007;-46
2022/08/06 10:24:35;;;;;;;;;;;20.20;54.00;;;;;;5142559;27;19927;-47
2022/08/06 10:27:01;;;;;;;;;;;21.10;53.90;;;;;;5147989;27;19923;-47
2022/08/06 10:29:29;;;;;;;;;;;21.80;52.10;;;;;;5117800;27;19926;-47
2022/08/06 10:31:54;;;;;;;;;;;20.80;52.30;;;;;;5123305;27;20025;-47
2022/08/06 10:34:22;;;;;;;;;;;20.40;51.50;;;;;;5147843;27;19927;-46
2022/08/06 10:36:52;;;;;;;;;;;20.10;51.30;;;;;;5142359;27;20014;-48
2022/08/06 10:39:19;;;;;;;;;;;20.00;50.60;;;;;;5124158;27;19923;-47
2022/08/06 10:41:45;;;;;;;;;;;19.80;50.20;;;;;;5147818;27;19933;-48
2022/08/06 10:44:10;;;;;;;;;;;19.90;52.50;;;;;;5142207;27;19927;-49
2022/08/06 10:46:36;;;;;;;;;;;20.80;54.20;;;;;;5144471;27;19923;-54
2022/08/06 10:49:02;;;;;;;;;;;21.80;52.50;;;;;;5144356;27;20374;-45
2022/08/06 10:51:28;;;;;;;;;;;21.00;52.10;;;;;;5141606;27;19927;-50
2022/08/06 10:53:53;;;;;;;;;;;20.30;51.90;;;;;;5147392;27;19923;-46
2022/08/06 10:56:19;;;;;;;;;;;20.30;51.10;;;;;;5142331;27;19923;-48
2022/08/06 10:58:45;;;;;;;;;;;20.10;50.40;;;;;;5142315;27;19923;-47
2022/08/06 11:01:28;;;;;;;;;;;19.80;50.30;;;;;;5147500;27;19939;-46
2022/08/06 11:03:54;;;;;;;;;;;19.80;51.50;;;;;;5112546;27;19923;-48
2022/08/06 11:06:38;;;;;;;;;;;20.80;54.00;;;;;;5140971;27;20473;-50
2022/08/06 11:09:13;;;;;;;;;;;21.80;52.20;;;;;;5146310;27;19923;-45
2022/08/06 11:11:52;;;;;;;;;;;20.90;52.00;;;;;;5141895;27;19929;-47
2022/08/06 11:14:17;;;;;;;;;;;20.30;51.80;;;;;;5141974;27;20290;-48
2022/08/06 11:16:53;;;;;;;;;;;20.10;51.20;;;;;;5147481;27;20382;-46
2022/08/06 11:19:18;;;;;;;;;;;20.00;51.00;;;;;;5141534;27;20023;-46
2022/08/06 11:21:45;;;;;;;;;;;20.00;49.60;;;;;;5141753;27;19923;-47
2022/08/06 11:24:12;;;;;;;;;;;20.30;53.70;;;;;;5146870;27;19931;-52
2022/08/06 11:26:39;;;;;;;;;;;21.30;53.10;;;;;;5140530;27;20426;-46
2022/08/06 11:29:06;;;;;;;;;;;21.60;51.40;;;;;;5146177;27;19923;-55
2022/08/06 11:31:33;;;;;;;;;;;20.80;51.30;;;;;;5143387;27;20366;-46
2022/08/06 11:34:00;;;;;;;;;;;20.20;51.40;;;;;;5141831;27;20305;-48
2022/08/06 11:36:26;;;;;;;;;;;20.10;50.80;;;;;;5147225;27;20013;-47
2022/08/06 11:38:52;;;;;;;;;;;19.90;50.40;;;;;;5141944;27;19927;-46
2022/08/06 11:41:21;;;;;;;;;;;20.00;49.50;;;;;;5141635;27;19941;-45
2022/08/06 11:43:48;;;;;;;;;;;20.20;53.00;;;;;;5145662;27;20254;-49
2022/08/06 11:46:16;;;;;;;;;;;21.20;53.20;;;;;;5140809;27;19926;-46
2022/08/06 11:49:03;;;;;;;;;;;21.80;51.20;;;;;;5141414;27;20397;-49
2022/08/06 11:51:40;;;;;;;;;;;20.80;51.70;;;;;;5147199;27;20018;-50
2022/08/06 11:54:07;;;;;;;;;;;20.60;50.90;;;;;;5141525;27;20331;-46
2022/08/06 11:56:33;;;;;;;;;;;20.30;50.50;;;;;;5141521;27;20376;-45
2022/08/06 11:59:12;;;;;;;;;;;20.10;50.20;;;;;;5146984;27;19929;-47
2022/08/06 12:01:45;;;;;;;;;;;19.90;50.30;;;;;;5140647;27;19924;-46
2022/08/06 12:04:30;;;;;;;;;;;20.10;51.80;;;;;;5140536;27;20039;-48
2022/08/06 12:07:15;;;;;;;;;;;21.00;53.40;;;;;;5146678;27;20377;-51
2022/08/06 12:09:41;;;;;;;;;;;21.80;51.70;;;;;;5141588;27;19929;-45
2022/08/06 12:12:27;;;;;;;;;;;20.80;51.70;;;;;;5141585;27;20620;-46
2022/08/06 12:14:53;;;;;;;;;;;20.40;51.50;;;;;;5146975;27;19923;-46
2022/08/06 12:17:19;;;;;;;;;;;20.00;51.10;;;;;;5142483;27;19923;-46
2022/08/06 12:19:46;;;;;;;;;;;19.90;50.50;;;;;;5144194;27;19927;-48
2022/08/06 12:22:12;;;;;;;;;;;20.00;49.90;;;;;;5149332;27;19923;-48
2022/08/06 12:24:37;;;;;;;;;;;20.20;51.90;;;;;;5144754;27;20414;-45
2022/08/06 12:27:06;;;;;;;;;;;20.90;53.60;;;;;;5150404;27;19923;-47
2022/08/06 12:29:32;;;;;;;;;;;21.80;52.00;;;;;;5145421;27;20025;-47
2022/08/06 12:31:58;;;;;;;;;;;20.90;51.70;;;;;;5144634;27;20417;-46
2022/08/06 12:34:27;;;;;;;;;;;20.60;51.10;;;;;;5131615;27;19926;-47
2022/08/06 12:36:53;;;;;;;;;;;20.30;50.80;;;;;;5144961;27;19922;-45
2022/08/06 12:39:18;;;;;;;;;;;20.20;50.40;;;;;;5143308;27;20386;-46
2022/08/06 12:41:44;;;;;;;;;;;20.00;50.50;;;;;;5149513;27;19923;-46
2022/08/06 12:44:10;;;;;;;;;;;19.90;50.00;;;;;;5144616;27;19930;-47
2022/08/06 12:46:36;;;;;;;;;;;20.00;49.50;;;;;;5147427;27;20606;-52
2022/08/06 12:49:02;;;;;;;;;;;20.60;53.20;;;;;;5148201;27;20303;-46
2022/08/06 12:51:28;;;;;;;;;;;21.40;53.00;;;;;;5144512;27;19930;-50
2022/08/06 12:54:01;;;;;;;;;;;21.50;51.70;;;;;;5150147;27;19923;-45
2022/08/06 12:56:28;;;;;;;;;;;20.80;51.40;;;;;;5143864;27;19945;-44
2022/08/06 12:58:54;;;;;;;;;;;20.30;51.10;;;;;;5143426;27;20278;-45
2022/08/06 13:01:24;;;;;;;;;;;20.20;50.60;;;;;;5149637;27;19923;-48
2022/08/06 13:03:50;;;;;;;;;;;20.00;50.10;;;;;;5144192;27;19926;-47
2022/08/06 13:06:17;;;;;;;;;;;19.90;50.10;;;;;;5126094;27;20090;-49
2022/08/06 13:08:45;;;;;;;;;;;19.90;52.30;;;;;;5149462;27;20067;-47
2022/08/06 13:11:10;;;;;;;;;;;20.90;53.30;;;;;;5143987;27;19929;-46
2022/08/06 13:13:40;;;;;;;;;;;21.80;51.90;;;;;;5148808;27;20505;-56
2022/08/06 13:16:07;;;;;;;;;;;21.10;51.40;;;;;;5145407;27;20290;-46
2022/08/06 13:18:33;;;;;;;;;;;20.60;51.10;;;;;;5143332;27;19970;-45
2022/08/06 13:21:01;;;;;;;;;;;20.20;51.10;;;;;;5149216;27;19922;-45
2022/08/06 13:23:31;;;;;;;;;;;20.20;49.80;;;;;;5144035;27;20067;-47
2022/08/06 13:25:56;;;;;;;;;;;20.00;50.10;;;;;;5143854;27;19923;-52
2022/08/06 13:28:23;;;;;;;;;;;20.00;49.50;;;;;;5148180;27;20271;-45
2022/08/06 13:30:49;;;;;;;;;;;20.60;53.30;;;;;;5124722;27;20412;-46
2022/08/06 13:33:18;;;;;;;;;;;21.40;52.30;;;;;;5142856;27;20180;-51
2022/08/06 13:35:45;;;;;;;;;;;21.50;51.10;;;;;;5148274;27;19929;-44
2022/08/06 13:38:10;;;;;;;;;;;20.70;51.30;;;;;;5143308;27;19930;-45
2022/08/06 13:40:37;;;;;;;;;;;20.40;50.50;;;;;;5148974;27;19975;-46
2022/08/06 13:43:03;;;;;;;;;;;20.00;50.90;;;;;;5143749;27;19926;-45
2022/08/06 13:45:29;;;;;;;;;;;20.10;49.90;;;;;;5120939;27;19961;-46
2022/08/06 13:48:04;;;;;;;;;;;20.00;49.40;;;;;;5148952;27;19924;-48
2022/08/06 13:50:34;;;;;;;;;;;20.00;51.10;;;;;;5114795;27;19936;-50
2022/08/06 13:52:59;;;;;;;;;;;20.80;53.20;;;;;;5123236;27;19923;-48
2022/08/06 13:55:25;;;;;;;;;;;21.80;51.40;;;;;;5148153;27;19923;-46
2022/08/06 13:57:51;;;;;;;;;;;21.10;51.30;;;;;;5143245;27;20013;-44
2022/08/06 14:00:17;;;;;;;;;;;20.60;50.70;;;;;;5143500;27;19924;-45
2022/08/06 14:02:43;;;;;;;;;;;20.40;50.50;;;;;;5148716;27;20289;-47
2022/08/06 14:05:09;;;;;;;;;;;20.30;50.20;;;;;;5124383;27;19942;-46
2022/08/06 14:07:35;;;;;;;;;;;20.30;49.60;;;;;;5148257;27;19931;-47
2022/08/06 14:10:01;;;;;;;;;;;20.00;49.40;;;;;;5142000;27;19923;-47
2022/08/06 14:12:27;;;;;;;;;;;19.80;49.50;;;;;;5141770;27;19933;-47
2022/08/06 14:14:52;;;;;;;;;;;20.40;53.10;;;;;;5129674;27;20028;-47
2022/08/06 14:17:18;;;;;;;;;;;21.40;52.10;;;;;;5143019;27;19946;-45
2022/08/06 14:19:44;;;;;;;;;;;21.80;50.60;;;;;;5142809;27;19985;-45
2022/08/06 14:22:10;;;;;;;;;;;20.80;51.00;;;;;;5148059;27;19923;-45